sensor_id;sensor_type;location;lat;lon;timestamp;P1;durP1;ratioP1;P2;durP2;ratioP2
16593;SDS011;8410;52.532;13.336;2023-05-07T00:02:11;15.13;;;13.77;;
16593;SDS011;8410;52.532;13.336;2023-05-07T00:04:39;14.97;;;13.43;;
16593;SDS011;8410;52.532;13.336;2023-05-07T00:07:07;14.80;;;13.50;;
16593;SDS011;8410;52.532;13.336;2023-05-07T00:09:35;15.40;;;13.90;;
16593;SDS011;8410;52.532;13.336;2023-05-07T00:12:05;15.43;;;14.00;;
16593;SDS011;8410;52.532;13.336;2023-05-07T00:14:32;15.87;;;14.40;;
16593;SDS011;8410;52.532;13.336;2023-05-07T00:17:00;14.97;;;13.47;;
16593;SDS011;8410;52.532;13.336;2023-05-07T00:19:27;15.63;;;14.03;;
16593;SDS011;8410;52.532;13.336;2023-05-07T00:21:55;16.37;;;14.67;;
16593;SDS011;8410;52.532;13.336;2023-05-07T00:24:23;15.27;;;13.73;;
16593;SDS011;8410;52.532;13.336;2023-05-07T00:26:50;14.17;;;12.73;;
16593;SDS011;8410;52.532;13.336;2023-05-07T00:29:20;13.43;;;12.03;;
16593;SDS011;8410;52.532;13.336;2023-05-07T00:31:48;13.60;;;12.30;;
16593;SDS011;8410;52.532;13.336;2023-05-07T00:34:16;38.73;;;34.53;;
16593;SDS011;8410;52.532;13.336;2023-05-07T00:36:43;12.77;;;11.63;;
16593;SDS011;8410;52.532;13.336;2023-05-07T00:39:11;16.00;;;14.40;;
16593;SDS011;8410;52.532;13.336;2023-05-07T00:41:38;12.73;;;11.47;;
16593;SDS011;8410;52.532;13.336;2023-05-07T00:44:06;12.87;;;10.97;;
16593;SDS011;8410;52.532;13.336;2023-05-07T00:46:35;14.50;;;12.57;;
16593;SDS011;8410;52.532;13.336;2023-05-07T00:49:02;11.17;;;10.17;;
16593;SDS011;8410;52.532;13.336;2023-05-07T00:51:31;12.43;;;11.23;;
16593;SDS011;8410;52.532;13.336;2023-05-07T00:54:00;11.07;;;9.97;;
16593;SDS011;8410;52.532;13.336;2023-05-07T00:56:29;12.27;;;11.07;;
16593;SDS011;8410;52.532;13.336;2023-05-07T00:58:57;12.40;;;11.10;;
16593;SDS011;8410;52.532;13.336;2023-05-07T01:01:25;12.57;;;11.47;;
16593;SDS011;8410;52.532;13.336;2023-05-07T01:03:54;13.97;;;12.30;;
16593;SDS011;8410;52.532;13.336;2023-05-07T01:06:22;13.83;;;12.53;;
16593;SDS011;8410;52.532;13.336;2023-05-07T01:08:52;13.13;;;11.87;;
16593;SDS011;8410;52.532;13.336;2023-05-07T01:11:21;13.00;;;11.77;;
16593;SDS011;8410;52.532;13.336;2023-05-07T01:13:50;13.83;;;12.63;;
16593;SDS011;8410;52.532;13.336;2023-05-07T01:16:17;14.10;;;12.50;;
16593;SDS011;8410;52.532;13.336;2023-05-07T01:18:45;12.77;;;11.47;;
16593;SDS011;8410;52.532;13.336;2023-05-07T01:21:15;14.67;;;13.37;;
16593;SDS011;8410;52.532;13.336;2023-05-07T01:23:46;11.83;;;10.73;;
16593;SDS011;8410;52.532;13.336;2023-05-07T01:26:14;12.13;;;10.93;;
16593;SDS011;8410;52.532;13.336;2023-05-07T01:28:42;12.03;;;10.97;;
16593;SDS011;8410;52.532;13.336;2023-05-07T01:31:09;12.37;;;10.93;;
16593;SDS011;8410;52.532;13.336;2023-05-07T01:33:39;12.37;;;11.27;;
16593;SDS011;8410;52.532;13.336;2023-05-07T01:36:08;13.47;;;12.10;;
16593;SDS011;8410;52.532;13.336;2023-05-07T01:38:37;14.03;;;12.57;;
16593;SDS011;8410;52.532;13.336;2023-05-07T01:41:06;13.03;;;11.83;;
16593;SDS011;8410;52.532;13.336;2023-05-07T01:43:34;13.80;;;12.70;;
16593;SDS011;8410;52.532;13.336;2023-05-07T01:46:02;22.27;;;19.90;;
16593;SDS011;8410;52.532;13.336;2023-05-07T01:48:30;11.17;;;10.17;;
16593;SDS011;8410;52.532;13.336;2023-05-07T01:50:58;11.50;;;10.40;;
16593;SDS011;8410;52.532;13.336;2023-05-07T01:53:26;11.97;;;10.77;;
16593;SDS011;8410;52.532;13.336;2023-05-07T01:55:54;12.43;;;11.13;;
16593;SDS011;8410;52.532;13.336;2023-05-07T01:58:23;12.20;;;11.00;;
16593;SDS011;8410;52.532;13.336;2023-05-07T02:00:50;11.37;;;10.27;;
16593;SDS011;8410;52.532;13.336;2023-05-07T02:03:18;11.13;;;10.03;;
16593;SDS011;8410;52.532;13.336;2023-05-07T02:05:45;12.97;;;11.73;;
16593;SDS011;8410;52.532;13.336;2023-05-07T02:08:13;12.10;;;10.20;;
16593;SDS011;8410;52.532;13.336;2023-05-07T02:10:40;12.97;;;11.77;;
16593;SDS011;8410;52.532;13.336;2023-05-07T02:13:08;12.93;;;11.73;;
16593;SDS011;8410;52.532;13.336;2023-05-07T02:15:37;13.03;;;11.83;;
16593;SDS011;8410;52.532;13.336;2023-05-07T02:18:04;39.93;;;34.30;;
16593;SDS011;8410;52.532;13.336;2023-05-07T02:20:33;15.17;;;13.67;;
16593;SDS011;8410;52.532;13.336;2023-05-07T02:23:01;12.70;;;11.50;;
16593;SDS011;8410;52.532;13.336;2023-05-07T02:25:28;13.73;;;12.53;;
16593;SDS011;8410;52.532;13.336;2023-05-07T02:27:56;17.43;;;12.60;;
16593;SDS011;8410;52.532;13.336;2023-05-07T02:30:24;13.90;;;12.53;;
16593;SDS011;8410;52.532;13.336;2023-05-07T02:32:53;13.67;;;12.37;;
16593;SDS011;8410;52.532;13.336;2023-05-07T02:35:20;14.47;;;12.97;;
16593;SDS011;8410;52.532;13.336;2023-05-07T02:37:48;15.27;;;12.90;;
16593;SDS011;8410;52.532;13.336;2023-05-07T02:40:15;12.70;;;11.40;;
16593;SDS011;8410;52.532;13.336;2023-05-07T02:42:42;13.60;;;12.30;;
16593;SDS011;8410;52.532;13.336;2023-05-07T02:45:10;13.57;;;12.27;;
16593;SDS011;8410;52.532;13.336;2023-05-07T02:47:38;13.83;;;12.43;;
16593;SDS011;8410;52.532;13.336;2023-05-07T02:50:07;12.73;;;11.57;;
16593;SDS011;8410;52.532;13.336;2023-05-07T02:52:35;12.20;;;11.00;;
16593;SDS011;8410;52.532;13.336;2023-05-07T02:55:02;12.90;;;11.53;;
16593;SDS011;8410;52.532;13.336;2023-05-07T02:57:30;13.10;;;11.80;;
16593;SDS011;8410;52.532;13.336;2023-05-07T02:59:58;12.37;;;11.27;;
16593;SDS011;8410;52.532;13.336;2023-05-07T03:02:25;13.50;;;12.30;;
16593;SDS011;8410;52.532;13.336;2023-05-07T03:04:53;13.20;;;11.87;;
16593;SDS011;8410;52.532;13.336;2023-05-07T03:07:22;13.90;;;12.20;;
16593;SDS011;8410;52.532;13.336;2023-05-07T03:09:49;12.83;;;11.53;;
16593;SDS011;8410;52.532;13.336;2023-05-07T03:12:17;11.97;;;10.83;;
16593;SDS011;8410;52.532;13.336;2023-05-07T03:14:44;12.57;;;11.47;;
16593;SDS011;8410;52.532;13.336;2023-05-07T03:17:11;11.47;;;10.40;;
16593;SDS011;8410;52.532;13.336;2023-05-07T03:19:39;13.00;;;11.70;;
16593;SDS011;8410;52.532;13.336;2023-05-07T03:22:06;12.27;;;11.00;;
16593;SDS011;8410;52.532;13.336;2023-05-07T03:24:35;11.07;;;9.97;;
16593;SDS011;8410;52.532;13.336;2023-05-07T03:27:03;11.40;;;10.27;;
16593;SDS011;8410;52.532;13.336;2023-05-07T03:29:30;12.10;;;10.93;;
16593;SDS011;8410;52.532;13.336;2023-05-07T03:31:57;10.67;;;9.63;;
16593;SDS011;8410;52.532;13.336;2023-05-07T03:34:25;11.23;;;10.23;;
16593;SDS011;8410;52.532;13.336;2023-05-07T03:36:52;13.43;;;10.83;;
16593;SDS011;8410;52.532;13.336;2023-05-07T03:39:20;10.93;;;9.83;;
16593;SDS011;8410;52.532;13.336;2023-05-07T03:41:48;11.57;;;10.43;;
16593;SDS011;8410;52.532;13.336;2023-05-07T03:44:16;11.57;;;10.27;;
16593;SDS011;8410;52.532;13.336;2023-05-07T03:46:43;10.83;;;9.73;;
16593;SDS011;8410;52.532;13.336;2023-05-07T03:49:11;12.40;;;10.93;;
16593;SDS011;8410;52.532;13.336;2023-05-07T03:51:38;10.53;;;9.43;;
16593;SDS011;8410;52.532;13.336;2023-05-07T03:54:06;11.30;;;10.20;;
16593;SDS011;8410;52.532;13.336;2023-05-07T03:56:33;10.83;;;9.83;;
16593;SDS011;8410;52.532;13.336;2023-05-07T03:59:02;12.50;;;11.40;;
16593;SDS011;8410;52.532;13.336;2023-05-07T04:01:29;11.77;;;10.63;;
16593;SDS011;8410;52.532;13.336;2023-05-07T04:03:57;11.00;;;10.00;;
16593;SDS011;8410;52.532;13.336;2023-05-07T04:06:25;11.00;;;10.00;;
16593;SDS011;8410;52.532;13.336;2023-05-07T04:08:52;11.97;;;10.33;;
16593;SDS011;8410;52.532;13.336;2023-05-07T04:11:19;10.90;;;9.80;;
16593;SDS011;8410;52.532;13.336;2023-05-07T04:13:47;10.67;;;9.67;;
16593;SDS011;8410;52.532;13.336;2023-05-07T04:16:16;11.37;;;10.00;;
16593;SDS011;8410;52.532;13.336;2023-05-07T04:18:43;11.53;;;10.40;;
16593;SDS011;8410;52.532;13.336;2023-05-07T04:21:14;11.67;;;10.57;;
16593;SDS011;8410;52.532;13.336;2023-05-07T04:23:42;11.20;;;10.10;;
16593;SDS011;8410;52.532;13.336;2023-05-07T04:26:09;10.87;;;9.87;;
16593;SDS011;8410;52.532;13.336;2023-05-07T04:28:37;11.17;;;10.17;;
16593;SDS011;8410;52.532;13.336;2023-05-07T04:31:05;11.57;;;10.43;;
16593;SDS011;8410;52.532;13.336;2023-05-07T04:33:34;10.90;;;9.90;;
16593;SDS011;8410;52.532;13.336;2023-05-07T04:36:02;10.53;;;9.53;;
16593;SDS011;8410;52.532;13.336;2023-05-07T04:38:30;13.23;;;8.90;;
16593;SDS011;8410;52.532;13.336;2023-05-07T04:41:02;9.97;;;9.13;;
16593;SDS011;8410;52.532;13.336;2023-05-07T04:43:31;10.47;;;9.40;;
16593;SDS011;8410;52.532;13.336;2023-05-07T04:45:58;9.67;;;8.77;;
16593;SDS011;8410;52.532;13.336;2023-05-07T04:48:26;10.70;;;9.70;;
16593;SDS011;8410;52.532;13.336;2023-05-07T04:50:56;9.90;;;9.00;;
16593;SDS011;8410;52.532;13.336;2023-05-07T04:53:23;8.77;;;7.97;;
16593;SDS011;8410;52.532;13.336;2023-05-07T04:55:54;9.40;;;8.60;;
16593;SDS011;8410;52.532;13.336;2023-05-07T04:58:22;8.77;;;7.97;;
16593;SDS011;8410;52.532;13.336;2023-05-07T05:00:49;9.40;;;8.60;;
16593;SDS011;8410;52.532;13.336;2023-05-07T05:03:17;10.20;;;8.67;;
16593;SDS011;8410;52.532;13.336;2023-05-07T05:05:45;8.50;;;7.80;;
16593;SDS011;8410;52.532;13.336;2023-05-07T05:08:13;8.83;;;8.03;;
16593;SDS011;8410;52.532;13.336;2023-05-07T05:10:41;8.03;;;7.23;;
16593;SDS011;8410;52.532;13.336;2023-05-07T05:13:09;9.63;;;8.20;;
16593;SDS011;8410;52.532;13.336;2023-05-07T05:15:39;8.50;;;7.23;;
16593;SDS011;8410;52.532;13.336;2023-05-07T05:18:06;9.17;;;7.53;;
16593;SDS011;8410;52.532;13.336;2023-05-07T05:20:34;10.57;;;7.50;;
16593;SDS011;8410;52.532;13.336;2023-05-07T05:23:01;8.57;;;7.83;;
16593;SDS011;8410;52.532;13.336;2023-05-07T05:25:30;7.50;;;6.90;;
16593;SDS011;8410;52.532;13.336;2023-05-07T05:27:57;7.97;;;7.17;;
16593;SDS011;8410;52.532;13.336;2023-05-07T05:30:25;8.77;;;7.97;;
16593;SDS011;8410;52.532;13.336;2023-05-07T05:32:52;7.90;;;7.20;;
16593;SDS011;8410;52.532;13.336;2023-05-07T05:35:20;8.30;;;7.43;;
16593;SDS011;8410;52.532;13.336;2023-05-07T05:37:47;8.70;;;7.83;;
16593;SDS011;8410;52.532;13.336;2023-05-07T05:40:15;8.27;;;7.33;;
16593;SDS011;8410;52.532;13.336;2023-05-07T05:42:44;8.43;;;7.57;;
16593;SDS011;8410;52.532;13.336;2023-05-07T05:45:12;8.77;;;7.90;;
16593;SDS011;8410;52.532;13.336;2023-05-07T05:47:40;8.33;;;7.50;;
16593;SDS011;8410;52.532;13.336;2023-05-07T05:50:08;9.13;;;8.23;;
16593;SDS011;8410;52.532;13.336;2023-05-07T05:52:36;8.77;;;8.00;;
16593;SDS011;8410;52.532;13.336;2023-05-07T05:55:04;8.67;;;7.87;;
16593;SDS011;8410;52.532;13.336;2023-05-07T05:57:32;8.27;;;7.57;;
16593;SDS011;8410;52.532;13.336;2023-05-07T06:00:01;7.63;;;6.93;;
16593;SDS011;8410;52.532;13.336;2023-05-07T06:02:30;8.43;;;7.40;;
16593;SDS011;8410;52.532;13.336;2023-05-07T06:04:57;7.87;;;7.07;;
16593;SDS011;8410;52.532;13.336;2023-05-07T06:07:25;7.97;;;7.03;;
16593;SDS011;8410;52.532;13.336;2023-05-07T06:09:52;8.20;;;7.40;;
16593;SDS011;8410;52.532;13.336;2023-05-07T06:12:20;8.17;;;7.37;;
16593;SDS011;8410;52.532;13.336;2023-05-07T06:14:47;8.07;;;7.27;;
16593;SDS011;8410;52.532;13.336;2023-05-07T06:17:16;8.90;;;8.00;;
16593;SDS011;8410;52.532;13.336;2023-05-07T06:19:47;8.20;;;7.50;;
16593;SDS011;8410;52.532;13.336;2023-05-07T06:22:14;9.20;;;8.27;;
16593;SDS011;8410;52.532;13.336;2023-05-07T06:24:41;8.67;;;7.73;;
16593;SDS011;8410;52.532;13.336;2023-05-07T06:27:09;8.27;;;7.57;;
16593;SDS011;8410;52.532;13.336;2023-05-07T06:29:36;8.03;;;7.30;;
16593;SDS011;8410;52.532;13.336;2023-05-07T06:32:07;7.43;;;6.73;;
16593;SDS011;8410;52.532;13.336;2023-05-07T06:34:36;7.57;;;6.80;;
16593;SDS011;8410;52.532;13.336;2023-05-07T06:37:05;10.33;;;8.00;;
16593;SDS011;8410;52.532;13.336;2023-05-07T06:39:33;9.00;;;7.27;;
16593;SDS011;8410;52.532;13.336;2023-05-07T06:42:01;9.40;;;7.47;;
16593;SDS011;8410;52.532;13.336;2023-05-07T06:44:28;7.67;;;6.97;;
16593;SDS011;8410;52.532;13.336;2023-05-07T06:46:56;8.33;;;7.53;;
16593;SDS011;8410;52.532;13.336;2023-05-07T06:49:23;9.67;;;8.80;;
16593;SDS011;8410;52.532;13.336;2023-05-07T06:51:52;7.97;;;6.87;;
16593;SDS011;8410;52.532;13.336;2023-05-07T06:54:20;7.40;;;6.70;;
16593;SDS011;8410;52.532;13.336;2023-05-07T06:56:49;6.90;;;6.30;;
16593;SDS011;8410;52.532;13.336;2023-05-07T06:59:17;7.47;;;6.30;;
16593;SDS011;8410;52.532;13.336;2023-05-07T07:01:45;7.43;;;6.70;;
16593;SDS011;8410;52.532;13.336;2023-05-07T07:04:12;7.77;;;7.03;;
16593;SDS011;8410;52.532;13.336;2023-05-07T07:06:40;8.40;;;7.47;;
16593;SDS011;8410;52.532;13.336;2023-05-07T07:09:09;7.43;;;6.33;;
16593;SDS011;8410;52.532;13.336;2023-05-07T07:11:36;5.80;;;5.30;;
16593;SDS011;8410;52.532;13.336;2023-05-07T07:14:04;16.77;;;14.77;;
16593;SDS011;8410;52.532;13.336;2023-05-07T07:16:32;10.37;;;9.33;;
16593;SDS011;8410;52.532;13.336;2023-05-07T07:18:59;12.37;;;11.13;;
16593;SDS011;8410;52.532;13.336;2023-05-07T07:21:27;6.40;;;5.90;;
16593;SDS011;8410;52.532;13.336;2023-05-07T07:23:54;8.38;;;7.50;;
16593;SDS011;8410;52.532;13.336;2023-05-07T07:26:23;13.10;;;10.00;;
16593;SDS011;8410;52.532;13.336;2023-05-07T07:28:50;5.07;;;4.67;;
16593;SDS011;8410;52.532;13.336;2023-05-07T07:31:18;6.07;;;5.47;;
16593;SDS011;8410;52.532;13.336;2023-05-07T07:33:45;5.70;;;5.20;;
16593;SDS011;8410;52.532;13.336;2023-05-07T07:36:13;6.80;;;6.17;;
16593;SDS011;8410;52.532;13.336;2023-05-07T07:38:41;5.80;;;5.30;;
16593;SDS011;8410;52.532;13.336;2023-05-07T07:41:08;4.63;;;4.23;;
16593;SDS011;8410;52.532;13.336;2023-05-07T07:43:37;5.20;;;4.77;;
16593;SDS011;8410;52.532;13.336;2023-05-07T07:46:05;4.73;;;4.10;;
16593;SDS011;8410;52.532;13.336;2023-05-07T07:48:33;5.00;;;4.50;;
16593;SDS011;8410;52.532;13.336;2023-05-07T07:51:01;4.43;;;3.53;;
16593;SDS011;8410;52.532;13.336;2023-05-07T07:53:28;4.27;;;3.87;;
16593;SDS011;8410;52.532;13.336;2023-05-07T07:55:56;4.43;;;4.03;;
16593;SDS011;8410;52.532;13.336;2023-05-07T07:58:25;4.20;;;3.80;;
16593;SDS011;8410;52.532;13.336;2023-05-07T08:00:53;4.23;;;3.73;;
16593;SDS011;8410;52.532;13.336;2023-05-07T08:03:22;4.23;;;3.83;;
16593;SDS011;8410;52.532;13.336;2023-05-07T08:05:50;4.37;;;3.67;;
16593;SDS011;8410;52.532;13.336;2023-05-07T08:08:17;4.83;;;3.97;;
16593;SDS011;8410;52.532;13.336;2023-05-07T08:10:44;3.60;;;3.30;;
16593;SDS011;8410;52.532;13.336;2023-05-07T08:13:12;4.10;;;3.63;;
16593;SDS011;8410;52.532;13.336;2023-05-07T08:15:40;4.90;;;3.53;;
16593;SDS011;8410;52.532;13.336;2023-05-07T08:18:08;5.13;;;3.53;;
16593;SDS011;8410;52.532;13.336;2023-05-07T08:20:36;4.30;;;3.60;;
16593;SDS011;8410;52.532;13.336;2023-05-07T08:23:05;3.57;;;3.10;;
16593;SDS011;8410;52.532;13.336;2023-05-07T08:25:33;3.97;;;2.77;;
16593;SDS011;8410;52.532;13.336;2023-05-07T08:28:01;3.47;;;3.17;;
16593;SDS011;8410;52.532;13.336;2023-05-07T08:30:29;3.83;;;2.80;;
16593;SDS011;8410;52.532;13.336;2023-05-07T08:32:56;3.80;;;3.00;;
16593;SDS011;8410;52.532;13.336;2023-05-07T08:35:25;3.23;;;2.93;;
16593;SDS011;8410;52.532;13.336;2023-05-07T08:37:54;6.10;;;3.13;;
16593;SDS011;8410;52.532;13.336;2023-05-07T08:40:22;3.73;;;2.70;;
16593;SDS011;8410;52.532;13.336;2023-05-07T08:42:52;4.03;;;3.10;;
16593;SDS011;8410;52.532;13.336;2023-05-07T08:45:20;4.00;;;3.17;;
16593;SDS011;8410;52.532;13.336;2023-05-07T08:47:57;3.60;;;3.00;;
16593;SDS011;8410;52.532;13.336;2023-05-07T08:50:27;4.23;;;2.80;;
16593;SDS011;8410;52.532;13.336;2023-05-07T08:52:55;4.07;;;3.67;;
16593;SDS011;8410;52.532;13.336;2023-05-07T08:55:22;3.87;;;3.30;;
16593;SDS011;8410;52.532;13.336;2023-05-07T08:57:50;4.17;;;3.20;;
16593;SDS011;8410;52.532;13.336;2023-05-07T09:00:19;4.57;;;3.40;;
16593;SDS011;8410;52.532;13.336;2023-05-07T09:02:46;4.30;;;3.10;;
16593;SDS011;8410;52.532;13.336;2023-05-07T09:05:14;3.87;;;3.40;;
16593;SDS011;8410;52.532;13.336;2023-05-07T09:07:43;4.13;;;3.47;;
16593;SDS011;8410;52.532;13.336;2023-05-07T09:10:11;4.20;;;3.40;;
16593;SDS011;8410;52.532;13.336;2023-05-07T09:12:39;3.00;;;2.70;;
16593;SDS011;8410;52.532;13.336;2023-05-07T09:15:07;6.27;;;3.43;;
16593;SDS011;8410;52.532;13.336;2023-05-07T09:17:36;4.03;;;2.83;;
16593;SDS011;8410;52.532;13.336;2023-05-07T09:20:03;3.00;;;2.70;;
16593;SDS011;8410;52.532;13.336;2023-05-07T09:22:36;3.73;;;2.83;;
16593;SDS011;8410;52.532;13.336;2023-05-07T09:25:06;4.13;;;2.90;;
16593;SDS011;8410;52.532;13.336;2023-05-07T09:27:36;3.77;;;2.83;;
16593;SDS011;8410;52.532;13.336;2023-05-07T09:30:04;3.70;;;3.20;;
16593;SDS011;8410;52.532;13.336;2023-05-07T09:32:34;5.37;;;3.47;;
16593;SDS011;8410;52.532;13.336;2023-05-07T09:35:04;4.83;;;2.93;;
16593;SDS011;8410;52.532;13.336;2023-05-07T09:37:32;3.77;;;2.87;;
16593;SDS011;8410;52.532;13.336;2023-05-07T09:40:00;3.60;;;3.30;;
16593;SDS011;8410;52.532;13.336;2023-05-07T09:42:30;3.90;;;3.37;;
16593;SDS011;8410;52.532;13.336;2023-05-07T09:44:58;5.97;;;5.23;;
16593;SDS011;8410;52.532;13.336;2023-05-07T09:47:26;4.03;;;2.63;;
16593;SDS011;8410;52.532;13.336;2023-05-07T09:49:59;3.10;;;2.80;;
16593;SDS011;8410;52.532;13.336;2023-05-07T09:52:29;5.53;;;3.30;;
16593;SDS011;8410;52.532;13.336;2023-05-07T09:54:59;2.83;;;2.63;;
16593;SDS011;8410;52.532;13.336;2023-05-07T09:57:29;3.10;;;2.80;;
16593;SDS011;8410;52.532;13.336;2023-05-07T09:59:59;4.87;;;3.00;;
16593;SDS011;8410;52.532;13.336;2023-05-07T10:02:30;3.07;;;2.77;;
16593;SDS011;8410;52.532;13.336;2023-05-07T10:04:59;3.67;;;2.77;;
16593;SDS011;8410;52.532;13.336;2023-05-07T10:07:27;3.00;;;2.50;;
16593;SDS011;8410;52.532;13.336;2023-05-07T10:09:55;3.03;;;2.50;;
16593;SDS011;8410;52.532;13.336;2023-05-07T10:12:24;2.90;;;2.30;;
16593;SDS011;8410;52.532;13.336;2023-05-07T10:14:54;3.37;;;2.63;;
16593;SDS011;8410;52.532;13.336;2023-05-07T10:17:22;3.43;;;2.33;;
16593;SDS011;8410;52.532;13.336;2023-05-07T10:19:50;3.07;;;2.20;;
16593;SDS011;8410;52.532;13.336;2023-05-07T10:22:21;3.07;;;2.50;;
16593;SDS011;8410;52.532;13.336;2023-05-07T10:24:49;2.20;;;1.80;;
16593;SDS011;8410;52.532;13.336;2023-05-07T10:27:20;2.30;;;2.10;;
16593;SDS011;8410;52.532;13.336;2023-05-07T10:29:51;2.07;;;1.90;;
16593;SDS011;8410;52.532;13.336;2023-05-07T10:32:33;2.87;;;1.97;;
16593;SDS011;8410;52.532;13.336;2023-05-07T10:35:06;2.47;;;2.23;;
16593;SDS011;8410;52.532;13.336;2023-05-07T10:37:39;2.80;;;2.20;;
16593;SDS011;8410;52.532;13.336;2023-05-07T10:40:08;3.37;;;1.90;;
16593;SDS011;8410;52.532;13.336;2023-05-07T10:42:36;1.83;;;1.73;;
16593;SDS011;8410;52.532;13.336;2023-05-07T10:45:14;2.37;;;1.77;;
16593;SDS011;8410;52.532;13.336;2023-05-07T10:50:42;3.17;;;1.87;;
16593;SDS011;8410;52.532;13.336;2023-05-07T10:53:20;2.00;;;1.90;;
16593;SDS011;8410;52.532;13.336;2023-05-07T10:58:52;2.53;;;1.90;;
16593;SDS011;8410;52.532;13.336;2023-05-07T11:04:20;2.93;;;1.73;;
16593;SDS011;8410;52.532;13.336;2023-05-07T11:10:02;3.87;;;3.17;;
16593;SDS011;8410;52.532;13.336;2023-05-07T11:12:47;1.83;;;1.73;;
16593;SDS011;8410;52.532;13.336;2023-05-07T11:18:16;2.13;;;1.93;;
16593;SDS011;8410;52.532;13.336;2023-05-07T11:20:45;1.93;;;1.73;;
16593;SDS011;8410;52.532;13.336;2023-05-07T11:26:41;2.63;;;1.80;;
16593;SDS011;8410;52.532;13.336;2023-05-07T11:29:14;2.20;;;2.00;;
16593;SDS011;8410;52.532;13.336;2023-05-07T11:31:49;2.10;;;1.90;;
16593;SDS011;8410;52.532;13.336;2023-05-07T11:34:22;4.00;;;2.27;;
16593;SDS011;8410;52.532;13.336;2023-05-07T11:36:51;2.10;;;1.90;;
16593;SDS011;8410;52.532;13.336;2023-05-07T11:39:29;4.23;;;2.03;;
16593;SDS011;8410;52.532;13.336;2023-05-07T11:41:59;2.10;;;1.90;;
16593;SDS011;8410;52.532;13.336;2023-05-07T11:44:40;2.80;;;2.00;;
16593;SDS011;8410;52.532;13.336;2023-05-07T11:47:09;1.90;;;1.80;;
16593;SDS011;8410;52.532;13.336;2023-05-07T11:49:38;2.53;;;1.80;;
16593;SDS011;8410;52.532;13.336;2023-05-07T11:52:06;3.27;;;2.10;;
16593;SDS011;8410;52.532;13.336;2023-05-07T11:54:34;2.17;;;1.97;;
16593;SDS011;8410;52.532;13.336;2023-05-07T11:57:03;2.20;;;1.90;;
16593;SDS011;8410;52.532;13.336;2023-05-07T11:59:30;2.80;;;1.90;;
16593;SDS011;8410;52.532;13.336;2023-05-07T12:02:06;2.43;;;2.20;;
16593;SDS011;8410;52.532;13.336;2023-05-07T12:04:34;4.00;;;2.37;;
16593;SDS011;8410;52.532;13.336;2023-05-07T12:07:02;7.30;;;2.87;;
16593;SDS011;8410;52.532;13.336;2023-05-07T12:09:32;6.73;;;3.73;;
16593;SDS011;8410;52.532;13.336;2023-05-07T12:12:02;5.10;;;3.10;;
16593;SDS011;8410;52.532;13.336;2023-05-07T12:14:31;7.37;;;4.80;;
16593;SDS011;8410;52.532;13.336;2023-05-07T12:16:58;5.77;;;2.57;;
16593;SDS011;8410;52.532;13.336;2023-05-07T12:19:29;5.93;;;3.57;;
16593;SDS011;8410;52.532;13.336;2023-05-07T12:21:57;3.80;;;1.80;;
16593;SDS011;8410;52.532;13.336;2023-05-07T12:24:26;2.63;;;2.40;;
16593;SDS011;8410;52.532;13.336;2023-05-07T12:26:54;6.93;;;5.07;;
16593;SDS011;8410;52.532;13.336;2023-05-07T12:29:21;1.90;;;1.80;;
16593;SDS011;8410;52.532;13.336;2023-05-07T12:31:49;3.83;;;2.70;;
16593;SDS011;8410;52.532;13.336;2023-05-07T12:34:17;2.70;;;2.47;;
16593;SDS011;8410;52.532;13.336;2023-05-07T12:36:45;2.10;;;1.73;;
16593;SDS011;8410;52.532;13.336;2023-05-07T12:39:15;3.27;;;1.80;;
16593;SDS011;8410;52.532;13.336;2023-05-07T12:41:53;3.23;;;2.50;;
16593;SDS011;8410;52.532;13.336;2023-05-07T12:44:21;2.23;;;1.70;;
16593;SDS011;8410;52.532;13.336;2023-05-07T12:46:49;3.30;;;2.30;;
16593;SDS011;8410;52.532;13.336;2023-05-07T12:49:17;3.27;;;2.43;;
16593;SDS011;8410;52.532;13.336;2023-05-07T12:51:46;2.83;;;2.33;;
16593;SDS011;8410;52.532;13.336;2023-05-07T12:54:14;7.53;;;4.57;;
16593;SDS011;8410;52.532;13.336;2023-05-07T12:57:01;3.40;;;2.73;;
16593;SDS011;8410;52.532;13.336;2023-05-07T12:59:33;3.83;;;3.07;;
16593;SDS011;8410;52.532;13.336;2023-05-07T13:02:01;3.70;;;2.83;;
16593;SDS011;8410;52.532;13.336;2023-05-07T13:04:30;3.97;;;3.37;;
16593;SDS011;8410;52.532;13.336;2023-05-07T13:06:57;3.20;;;2.20;;
16593;SDS011;8410;52.532;13.336;2023-05-07T13:09:25;2.47;;;2.03;;
16593;SDS011;8410;52.532;13.336;2023-05-07T13:11:54;2.33;;;1.70;;
16593;SDS011;8410;52.532;13.336;2023-05-07T13:14:23;3.13;;;2.37;;
16593;SDS011;8410;52.532;13.336;2023-05-07T13:16:50;3.87;;;1.87;;
16593;SDS011;8410;52.532;13.336;2023-05-07T13:19:18;3.03;;;2.00;;
16593;SDS011;8410;52.532;13.336;2023-05-07T13:21:45;2.87;;;2.00;;
16593;SDS011;8410;52.532;13.336;2023-05-07T13:24:13;3.53;;;3.23;;
16593;SDS011;8410;52.532;13.336;2023-05-07T13:26:40;5.57;;;3.83;;
16593;SDS011;8410;52.532;13.336;2023-05-07T13:29:11;5.53;;;4.20;;
16593;SDS011;8410;52.532;13.336;2023-05-07T13:31:40;2.07;;;1.53;;
16593;SDS011;8410;52.532;13.336;2023-05-07T13:34:09;1.90;;;1.53;;
16593;SDS011;8410;52.532;13.336;2023-05-07T13:36:36;1.60;;;1.30;;
16593;SDS011;8410;52.532;13.336;2023-05-07T13:39:06;4.97;;;2.93;;
16593;SDS011;8410;52.532;13.336;2023-05-07T13:41:33;3.63;;;2.77;;
16593;SDS011;8410;52.532;13.336;2023-05-07T13:44:01;2.43;;;2.23;;
16593;SDS011;8410;52.532;13.336;2023-05-07T13:46:28;3.37;;;2.03;;
16593;SDS011;8410;52.532;13.336;2023-05-07T13:48:58;1.83;;;1.63;;
16593;SDS011;8410;52.532;13.336;2023-05-07T13:51:25;1.77;;;1.67;;
16593;SDS011;8410;52.532;13.336;2023-05-07T13:53:53;5.50;;;3.97;;
16593;SDS011;8410;52.532;13.336;2023-05-07T13:56:20;2.93;;;2.10;;
16593;SDS011;8410;52.532;13.336;2023-05-07T13:58:48;3.70;;;2.20;;
16593;SDS011;8410;52.532;13.336;2023-05-07T14:01:25;4.17;;;2.23;;
16593;SDS011;8410;52.532;13.336;2023-05-07T14:03:53;2.57;;;1.87;;
16593;SDS011;8410;52.532;13.336;2023-05-07T14:06:22;2.67;;;2.30;;
16593;SDS011;8410;52.532;13.336;2023-05-07T14:08:49;4.33;;;2.73;;
16593;SDS011;8410;52.532;13.336;2023-05-07T14:11:17;2.47;;;1.80;;
16593;SDS011;8410;52.532;13.336;2023-05-07T14:13:45;2.00;;;1.80;;
16593;SDS011;8410;52.532;13.336;2023-05-07T14:16:12;2.60;;;2.40;;
16593;SDS011;8410;52.532;13.336;2023-05-07T14:18:40;1.93;;;1.70;;
16593;SDS011;8410;52.532;13.336;2023-05-07T14:21:08;2.03;;;1.80;;
16593;SDS011;8410;52.532;13.336;2023-05-07T14:23:37;2.90;;;2.70;;
16593;SDS011;8410;52.532;13.336;2023-05-07T14:26:05;2.77;;;2.47;;
16593;SDS011;8410;52.532;13.336;2023-05-07T14:28:32;6.63;;;3.37;;
16593;SDS011;8410;52.532;13.336;2023-05-07T14:30:59;3.53;;;2.33;;
16593;SDS011;8410;52.532;13.336;2023-05-07T14:33:27;2.93;;;1.87;;
16593;SDS011;8410;52.532;13.336;2023-05-07T14:35:54;3.23;;;1.83;;
16593;SDS011;8410;52.532;13.336;2023-05-07T14:38:22;2.90;;;1.90;;
16593;SDS011;8410;52.532;13.336;2023-05-07T14:40:50;1.97;;;1.53;;
16593;SDS011;8410;52.532;13.336;2023-05-07T14:43:21;2.73;;;1.80;;
16593;SDS011;8410;52.532;13.336;2023-05-07T14:45:49;4.27;;;1.93;;
16593;SDS011;8410;52.532;13.336;2023-05-07T14:48:16;4.53;;;1.80;;
16593;SDS011;8410;52.532;13.336;2023-05-07T14:50:46;2.47;;;1.80;;
16593;SDS011;8410;52.532;13.336;2023-05-07T14:53:14;2.00;;;1.80;;
16593;SDS011;8410;52.532;13.336;2023-05-07T14:55:41;4.03;;;1.43;;
16593;SDS011;8410;52.532;13.336;2023-05-07T14:58:10;2.53;;;1.30;;
16593;SDS011;8410;52.532;13.336;2023-05-07T15:00:38;1.73;;;1.40;;
16593;SDS011;8410;52.532;13.336;2023-05-07T15:03:06;3.90;;;1.63;;
16593;SDS011;8410;52.532;13.336;2023-05-07T15:05:38;2.73;;;1.60;;